Time;durP1;ratioP1;P1;durP2;ratioP2;P2;SDS_P1;SDS_P2;PMS_P1;PMS_P2;Temp;Humidity;BMP_temperature;BMP_pressure;BME280_temperature;BME280_humidity;BME280_pressure;Samples;Min_cycle;Max_cycle;Signal;HPM_P1;HPM_P2
2021/11/19 00:00:48;;;;;;;22.58;10.95;;;11.80;99.90;;;;;;5069139;28;20402;-43
2021/11/19 00:03:15;;;;;;;18.38;10.90;;;11.80;99.90;;;;;;5069844;28;20021;-43
2021/11/19 00:05:42;;;;;;;17.88;10.25;;;11.80;99.90;;;;;;5069727;28;20048;-43
2021/11/19 00:08:08;;;;;;;17.08;10.60;;;11.80;99.90;;;;;;5069315;28;20028;-43
2021/11/19 00:10:35;;;;;;;19.80;10.52;;;11.80;99.90;;;;;;5069934;28;20032;-44
2021/11/19 00:13:00;;;;;;;18.15;10.57;;;11.80;99.90;;;;;;5068835;28;20021;-43
2021/11/19 00:15:26;;;;;;;25.30;11.30;;;11.90;99.90;;;;;;5068931;28;20059;-42
2021/11/19 00:17:52;;;;;;;14.90;9.50;;;11.90;99.90;;;;;;5069363;28;20070;-44
2021/11/19 00:20:28;;;;;;;19.17;10.93;;;11.80;99.90;;;;;;5069722;28;20414;-43
2021/11/19 00:22:55;;;;;;;19.85;11.30;;;11.90;99.90;;;;;;5069702;28;20016;-43
2021/11/19 00:25:20;;;;;;;17.10;11.02;;;11.90;99.90;;;;;;5069937;28;20016;-43
2021/11/19 00:27:46;;;;;;;20.65;12.43;;;11.80;99.90;;;;;;5069170;28;20025;-43
2021/11/19 00:30:13;;;;;;;20.25;11.85;;;11.80;99.90;;;;;;5068793;28;20024;-43
2021/11/19 00:32:39;;;;;;;21.15;11.23;;;11.90;99.90;;;;;;5068342;28;20033;-44
2021/11/19 00:35:07;;;;;;;25.67;12.95;;;11.90;99.90;;;;;;5069061;28;20481;-43
2021/11/19 00:37:34;;;;;;;15.80;10.70;;;11.90;99.90;;;;;;5068913;28;20051;-43
2021/11/19 00:40:00;;;;;;;17.80;10.68;;;11.90;99.90;;;;;;5069028;28;20064;-43
2021/11/19 00:42:27;;;;;;;18.25;10.93;;;11.90;99.90;;;;;;5068619;28;20056;-44
2021/11/19 00:44:52;;;;;;;17.30;10.90;;;11.90;99.90;;;;;;5068858;28;20588;-43
2021/11/19 00:47:18;;;;;;;19.02;11.95;;;11.90;99.90;;;;;;5069301;28;20460;-43
2021/11/19 00:49:47;;;;;;;20.60;12.18;;;11.90;99.90;;;;;;5068242;28;20540;-47
2021/11/19 00:52:15;;;;;;;21.73;11.68;;;11.90;99.90;;;;;;5068808;28;20020;-44
2021/11/19 00:54:42;;;;;;;21.25;12.60;;;11.90;99.90;;;;;;5068537;28;20552;-43
2021/11/19 00:57:11;;;;;;;22.83;13.27;;;11.90;99.90;;;;;;5068486;28;20079;-43
2021/11/19 00:59:42;;;;;;;25.05;14.18;;;11.90;99.90;;;;;;5068310;28;20058;-43
2021/11/19 01:02:14;;;;;;;21.35;13.65;;;11.90;99.90;;;;;;5068651;28;20169;-43
2021/11/19 01:04:50;;;;;;;20.95;12.63;;;11.90;99.90;;;;;;5067841;28;20024;-44
2021/11/19 01:07:17;;;;;;;16.77;11.98;;;11.90;99.90;;;;;;5069319;28;20044;-43
2021/11/19 01:09:53;;;;;;;21.90;14.25;;;11.90;99.90;;;;;;5067694;28;20487;-43
2021/11/19 01:12:24;;;;;;;25.42;14.82;;;11.90;99.90;;;;;;5068894;28;20043;-44
2021/11/19 01:15:16;;;;;;;23.75;13.88;;;11.90;99.90;;;;;;5068444;28;20115;-44
2021/11/19 01:17:55;;;;;;;16.98;11.30;;;12.00;99.90;;;;;;5048313;28;21052;-44
2021/11/19 01:20:27;;;;;;;18.70;13.13;;;11.90;99.90;;;;;;5064666;28;20047;-43
2021/11/19 01:22:55;;;;;;;19.17;12.40;;;11.90;99.90;;;;;;5048747;28;20388;-43
2021/11/19 01:25:25;;;;;;;20.42;12.82;;;12.00;99.90;;;;;;5062697;28;20024;-42
2021/11/19 01:27:51;;;;;;;17.33;11.35;;;12.00;99.90;;;;;;5068302;28;20104;-42
2021/11/19 01:30:21;;;;;;;19.60;11.93;;;12.00;99.90;;;;;;5068316;28;20040;-43
2021/11/19 01:32:47;;;;;;;17.50;12.55;;;12.00;99.90;;;;;;5067607;28;20511;-44
2021/11/19 01:35:13;;;;;;;18.42;12.88;;;12.00;99.90;;;;;;5067651;28;20024;-44
2021/11/19 01:37:39;;;;;;;18.50;10.90;;;12.00;99.90;;;;;;5068256;28;20103;-43
2021/11/19 01:40:14;;;;;;;21.30;12.80;;;12.00;99.90;;;;;;5067509;28;20040;-43
2021/11/19 01:42:45;;;;;;;15.35;10.93;;;12.00;99.90;;;;;;5067389;28;20036;-43
2021/11/19 01:45:17;;;;;;;17.83;12.57;;;12.00;99.90;;;;;;5066871;28;20024;-43
2021/11/19 01:47:46;;;;;;;23.00;13.63;;;12.00;99.90;;;;;;5068537;28;20062;-43
2021/11/19 01:50:31;;;;;;;19.23;13.30;;;12.00;99.90;;;;;;5067364;28;20136;-43
2021/11/19 01:53:27;;;;;;;21.58;13.25;;;12.00;99.90;;;;;;5067141;28;20111;-44
2021/11/19 01:56:08;;;;;;;19.80;12.07;;;12.00;99.90;;;;;;5067624;28;20028;-44
2021/11/19 01:58:41;;;;;;;24.98;14.25;;;12.00;99.90;;;;;;5067809;28;20025;-43
2021/11/19 02:01:13;;;;;;;18.80;12.98;;;12.00;99.90;;;;;;5066970;28;20115;-43
2021/11/19 02:03:42;;;;;;;25.30;14.13;;;12.00;99.90;;;;;;5067911;28;20027;-43
2021/11/19 02:06:15;;;;;;;19.88;12.75;;;12.00;99.90;;;;;;5066338;28;20543;-43
2021/11/19 02:08:43;;;;;;;15.52;10.73;;;12.10;99.90;;;;;;5067220;28;20471;-43
2021/11/19 02:11:24;;;;;;;23.95;13.65;;;12.00;99.90;;;;;;5067616;28;20078;-44
2021/11/19 02:14:04;;;;;;;22.20;13.85;;;12.10;99.90;;;;;;5066609;28;20051;-43
2021/11/19 02:16:36;;;;;;;17.45;12.43;;;12.10;99.90;;;;;;5066954;28;20101;-42
2021/11/19 02:19:15;;;;;;;20.27;13.98;;;12.10;99.90;;;;;;5066932;28;20875;-43
2021/11/19 02:21:58;;;;;;;20.60;13.73;;;12.10;99.90;;;;;;5066598;28;20523;-44
2021/11/19 02:24:45;;;;;;;20.52;13.32;;;12.10;99.90;;;;;;5067356;28;20046;-44
2021/11/19 02:27:17;;;;;;;22.08;15.52;;;12.10;99.90;;;;;;5066376;28;20017;-43
2021/11/19 02:29:48;;;;;;;20.90;14.18;;;12.00;99.90;;;;;;5066923;28;20032;-43
2021/11/19 02:32:19;;;;;;;24.33;16.27;;;12.00;99.90;;;;;;5067675;28;20023;-42
2021/11/19 02:34:45;;;;;;;25.83;16.45;;;12.00;99.90;;;;;;5066733;28;20090;-42
2021/11/19 02:37:27;;;;;;;23.05;16.90;;;12.00;99.90;;;;;;5067088;28;20016;-43
2021/11/19 02:40:00;;;;;;;24.33;16.42;;;12.00;99.90;;;;;;5067281;28;20115;-44
2021/11/19 02:42:39;;;;;;;29.70;17.60;;;12.00;99.90;;;;;;5066473;28;20012;-43
2021/11/19 02:45:13;;;;;;;22.70;16.77;;;12.00;99.90;;;;;;5067057;28;20159;-44
2021/11/19 02:47:42;;;;;;;27.90;18.63;;;12.00;99.90;;;;;;5066610;28;20102;-43
2021/11/19 02:50:13;;;;;;;30.67;17.45;;;12.00;99.90;;;;;;5066733;28;20021;-43
2021/11/19 02:52:41;;;;;;;30.95;18.33;;;12.00;99.90;;;;;;5066552;28;20024;-43
2021/11/19 02:55:16;;;;;;;30.45;20.27;;;12.00;99.90;;;;;;5068483;28;20396;-43
2021/11/19 02:57:42;;;;;;;27.05;17.98;;;12.00;99.90;;;;;;5071258;28;20021;-44
2021/11/19 03:00:15;;;;;;;24.55;17.17;;;12.00;99.90;;;;;;5071121;28;20031;-44
2021/11/19 03:02:41;;;;;;;27.45;18.05;;;12.00;99.90;;;;;;5069870;28;20063;-43
2021/11/19 03:05:12;;;;;;;22.60;15.82;;;12.10;99.90;;;;;;5071274;28;20455;-43
2021/11/19 03:07:38;;;;;;;27.60;18.80;;;12.10;99.90;;;;;;5070612;28;20094;-43
2021/11/19 03:10:16;;;;;;;25.08;17.38;;;12.10;99.90;;;;;;5069978;28;20021;-43
2021/11/19 03:12:42;;;;;;;28.13;18.20;;;12.10;99.90;;;;;;5070753;28;20495;-43
2021/11/19 03:15:12;;;;;;;30.00;18.80;;;12.10;99.90;;;;;;5070224;28;20032;-44
2021/11/19 03:17:38;;;;;;;27.67;19.70;;;12.10;99.90;;;;;;5070264;28;20021;-43
2021/11/19 03:20:06;;;;;;;26.75;18.33;;;12.10;99.90;;;;;;5070459;28;20074;-42
2021/11/19 03:22:32;;;;;;;31.02;19.45;;;12.10;99.90;;;;;;5070769;28;20056;-43
2021/11/19 03:24:59;;;;;;;23.05;16.35;;;12.10;99.90;;;;;;5069867;28;20087;-42
2021/11/19 03:27:26;;;;;;;22.55;16.42;;;12.10;99.90;;;;;;5071014;28;20024;-43
2021/11/19 03:29:52;;;;;;;23.75;17.25;;;12.10;99.90;;;;;;5069888;28;20039;-42
2021/11/19 03:32:20;;;;;;;21.60;15.75;;;12.10;99.90;;;;;;5070135;28;20024;-43
2021/11/19 03:34:49;;;;;;;24.33;16.67;;;12.10;99.90;;;;;;5070193;28;20085;-43
2021/11/19 03:37:18;;;;;;;24.05;17.98;;;12.10;99.90;;;;;;5070749;28;20385;-44
2021/11/19 03:39:44;;;;;;;23.67;17.25;;;12.10;99.90;;;;;;5069748;28;20017;-44
2021/11/19 03:42:10;;;;;;;28.92;19.10;;;12.10;99.90;;;;;;5070397;28;20028;-44
2021/11/19 03:44:48;;;;;;;26.55;19.65;;;12.10;99.90;;;;;;5069259;28;20017;-44
2021/11/19 03:47:30;;;;;;;27.48;19.15;;;12.10;99.90;;;;;;5070629;28;20024;-43
2021/11/19 03:49:57;;;;;;;27.08;20.35;;;12.10;99.90;;;;;;5070399;28;20040;-43
2021/11/19 03:52:32;;;;;;;28.33;19.67;;;12.10;99.90;;;;;;5069435;28;20020;-43
2021/11/19 03:55:04;;;;;;;28.75;20.73;;;12.10;99.90;;;;;;5069840;28;20044;-43
2021/11/19 03:57:30;;;;;;;28.90;18.85;;;12.10;99.90;;;;;;5069741;28;20024;-43
2021/11/19 03:59:56;;;;;;;31.33;20.77;;;12.10;99.90;;;;;;5069639;28;20356;-42
2021/11/19 04:02:25;;;;;;;28.02;19.65;;;12.10;99.90;;;;;;5069806;28;20021;-43
2021/11/19 04:04:52;;;;;;;28.67;21.15;;;12.10;99.90;;;;;;5069359;28;20024;-44
2021/11/19 04:07:18;;;;;;;26.17;18.52;;;12.10;99.90;;;;;;5069456;28;20036;-43
2021/11/19 04:09:45;;;;;;;29.83;19.80;;;12.10;99.90;;;;;;5069706;28;20016;-44
2021/11/19 04:12:12;;;;;;;26.05;18.42;;;12.10;99.90;;;;;;5058838;28;20119;-43
2021/11/19 04:14:38;;;;;;;32.67;21.50;;;12.10;99.90;;;;;;5069000;28;20028;-43
2021/11/19 04:17:04;;;;;;;30.75;20.80;;;12.10;99.90;;;;;;5069508;28;20036;-43
2021/11/19 04:19:31;;;;;;;29.05;20.80;;;12.10;99.90;;;;;;5069038;28;20166;-44
2021/11/19 04:22:00;;;;;;;30.83;21.25;;;12.10;99.90;;;;;;5069241;28;20129;-44
2021/11/19 04:24:31;;;;;;;28.17;20.20;;;12.10;99.90;;;;;;5069467;28;20028;-44
2021/11/19 04:26:57;;;;;;;30.75;21.50;;;12.10;99.90;;;;;;5068665;28;20105;-45
2021/11/19 04:29:26;;;;;;;29.02;20.55;;;12.10;99.90;;;;;;5069941;28;20060;-43
2021/11/19 04:31:51;;;;;;;33.47;20.63;;;12.10;99.90;;;;;;5069338;28;20115;-43
2021/11/19 04:34:17;;;;;;;24.58;18.23;;;12.10;99.90;;;;;;5068975;28;20278;-43
2021/11/19 04:36:46;;;;;;;26.85;17.77;;;12.10;99.90;;;;;;5068838;28;20020;-42
2021/11/19 04:39:12;;;;;;;29.50;20.45;;;12.10;99.90;;;;;;5069455;28;20039;-43
2021/11/19 04:41:39;;;;;;;27.90;20.08;;;12.10;99.90;;;;;;5068389;28;20036;-43
2021/11/19 04:44:05;;;;;;;26.92;18.50;;;12.10;99.90;;;;;;5068854;28;20033;-44
2021/11/19 04:46:31;;;;;;;23.30;16.95;;;12.10;99.90;;;;;;5068797;28;20012;-44
2021/11/19 04:49:00;;;;;;;23.52;16.88;;;12.10;99.90;;;;;;5068625;28;20034;-44
2021/11/19 04:51:30;;;;;;;28.95;19.95;;;12.10;99.90;;;;;;5068937;28;20086;-43
2021/11/19 04:53:56;;;;;;;33.70;22.67;;;12.10;99.90;;;;;;5068861;28;20472;-43
2021/11/19 04:56:23;;;;;;;33.25;23.90;;;12.10;99.90;;;;;;5067890;28;20055;-43
2021/11/19 04:58:49;;;;;;;29.40;20.33;;;12.10;99.90;;;;;;5068734;28;20031;-43
2021/11/19 05:01:21;;;;;;;31.33;20.88;;;12.10;99.90;;;;;;5069267;28;20103;-44
2021/11/19 05:03:47;;;;;;;28.45;20.58;;;12.10;99.90;;;;;;5068341;28;20047;-43
2021/11/19 05:06:14;;;;;;;28.73;20.90;;;12.10;99.90;;;;;;5069026;28;20047;-43
2021/11/19 05:08:40;;;;;;;28.05;20.58;;;12.10;99.90;;;;;;5068329;28;20028;-44
2021/11/19 05:11:09;;;;;;;27.83;20.45;;;12.10;99.90;;;;;;5068218;28;20020;-42
2021/11/19 05:13:36;;;;;;;29.58;20.40;;;12.10;99.90;;;;;;5068505;28;20056;-44
2021/11/19 05:16:05;;;;;;;32.08;21.38;;;12.10;99.90;;;;;;5067596;28;20460;-44
2021/11/19 05:18:31;;;;;;;29.23;20.67;;;12.10;99.90;;;;;;5067615;28;20039;-44
2021/11/19 05:20:57;;;;;;;26.13;19.30;;;12.10;99.90;;;;;;5068215;28;20799;-45
2021/11/19 05:23:24;;;;;;;31.10;22.00;;;12.10;99.90;;;;;;5067960;28;20047;-44
2021/11/19 05:25:50;;;;;;;34.15;23.95;;;12.10;99.90;;;;;;5068239;28;20059;-43
2021/11/19 05:28:19;;;;;;;33.97;23.33;;;12.10;99.90;;;;;;5068387;28;20048;-43
2021/11/19 05:30:45;;;;;;;29.05;22.02;;;12.10;99.90;;;;;;5068004;28;20032;-44
2021/11/19 05:33:15;;;;;;;29.17;21.50;;;12.10;99.90;;;;;;5067546;28;20028;-43
2021/11/19 05:35:41;;;;;;;27.95;19.95;;;12.10;99.90;;;;;;5067611;28;20036;-43
2021/11/19 05:38:07;;;;;;;31.35;21.95;;;12.10;99.90;;;;;;5067332;28;20051;-43
2021/11/19 05:40:33;;;;;;;27.13;21.05;;;12.10;99.90;;;;;;5068218;28;20093;-44
2021/11/19 05:42:59;;;;;;;30.48;22.13;;;12.10;99.90;;;;;;5067868;28;20096;-43
2021/11/19 05:45:27;;;;;;;29.13;21.90;;;12.10;99.90;;;;;;5066741;28;20111;-43
2021/11/19 05:47:53;;;;;;;27.40;21.17;;;12.10;99.90;;;;;;5067845;28;20024;-43
2021/11/19 05:50:21;;;;;;;31.17;21.67;;;12.10;99.90;;;;;;5068300;28;20028;-45
2021/11/19 05:52:47;;;;;;;27.70;20.10;;;12.10;99.90;;;;;;5067573;28;20024;-43
2021/11/19 05:55:18;;;;;;;26.35;18.83;;;12.10;99.90;;;;;;5067613;28;20059;-43
2021/11/19 05:57:44;;;;;;;25.98;20.27;;;12.20;99.90;;;;;;5067564;28;20091;-44
2021/11/19 06:00:23;;;;;;;25.20;19.50;;;12.10;99.90;;;;;;5066948;28;20535;-43
2021/11/19 06:02:53;;;;;;;21.17;16.48;;;12.10;99.90;;;;;;5067232;28;20029;-43
2021/11/19 06:05:19;;;;;;;26.60;20.08;;;12.10;99.90;;;;;;5067399;28;20024;-44
2021/11/19 06:07:45;;;;;;;22.80;17.63;;;12.10;99.90;;;;;;5067762;28;20040;-44
2021/11/19 06:10:17;;;;;;;23.63;17.30;;;12.10;99.90;;;;;;5066919;28;20055;-44
2021/11/19 06:12:57;;;;;;;25.38;18.55;;;12.20;99.90;;;;;;5067134;28;20085;-43
2021/11/19 06:15:27;;;;;;;30.02;20.83;;;12.20;99.90;;;;;;5067240;28;20107;-44
2021/11/19 06:17:59;;;;;;;28.40;20.80;;;12.20;99.90;;;;;;5067325;28;20387;-43
2021/11/19 06:20:33;;;;;;;27.02;19.13;;;12.20;99.90;;;;;;5066948;28;20028;-43
2021/11/19 06:23:07;;;;;;;26.15;18.63;;;12.20;99.90;;;;;;5047663;28;20412;-43
2021/11/19 06:25:35;;;;;;;22.27;17.20;;;12.10;99.90;;;;;;5063126;28;20055;-43
2021/11/19 06:28:05;;;;;;;23.83;18.73;;;12.20;99.90;;;;;;5046961;28;20032;-43
2021/11/19 06:30:32;;;;;;;25.65;19.75;;;12.20;99.90;;;;;;5062179;28;20043;-43
2021/11/19 06:32:57;;;;;;;19.77;15.45;;;12.20;99.90;;;;;;5067192;28;20056;-44
2021/11/19 06:35:24;;;;;;;25.65;18.98;;;12.20;99.90;;;;;;5066076;28;20098;-45
2021/11/19 06:37:49;;;;;;;21.73;17.35;;;12.20;99.90;;;;;;5067212;28;20539;-44
2021/11/19 06:40:19;;;;;;;22.75;17.05;;;12.20;99.90;;;;;;5066587;28;20127;-43
2021/11/19 06:42:46;;;;;;;22.60;17.08;;;12.20;99.90;;;;;;5067040;28;20027;-45
2021/11/19 06:45:15;;;;;;;25.42;19.35;;;12.20;99.90;;;;;;5067040;28;20020;-43
2021/11/19 06:47:41;;;;;;;25.27;19.08;;;12.20;99.90;;;;;;5066060;28;20104;-43
2021/11/19 06:50:09;;;;;;;29.17;19.90;;;12.20;99.90;;;;;;5065405;28;20086;-44
2021/11/19 06:52:34;;;;;;;23.95;18.33;;;12.20;99.90;;;;;;5066796;28;20103;-43
2021/11/19 06:55:00;;;;;;;25.27;19.73;;;12.20;99.90;;;;;;5063406;28;20533;-43
2021/11/19 06:57:26;;;;;;;23.52;19.17;;;12.30;99.90;;;;;;5065718;28;20021;-44
2021/11/19 06:59:52;;;;;;;26.85;20.25;;;12.20;99.90;;;;;;5062670;28;20029;-43
2021/11/19 07:02:17;;;;;;;25.55;18.90;;;12.20;99.90;;;;;;5066100;28;20024;-44
2021/11/19 07:04:43;;;;;;;26.63;20.30;;;12.30;99.90;;;;;;5065854;28;20028;-44
2021/11/19 07:07:09;;;;;;;23.05;17.70;;;12.30;99.90;;;;;;5066280;28;20029;-43
2021/11/19 07:09:37;;;;;;;22.15;16.92;;;12.30;99.90;;;;;;5065697;28;20116;-44
2021/11/19 07:12:09;;;;;;;26.25;18.00;;;12.40;99.90;;;;;;5065794;28;20043;-44
2021/11/19 07:14:34;;;;;;;22.63;18.20;;;12.30;99.90;;;;;;5045941;28;20025;-47
2021/11/19 07:17:04;;;;;;;22.50;18.10;;;12.30;99.90;;;;;;5059328;28;20499;-44
2021/11/19 07:19:30;;;;;;;22.48;17.13;;;12.40;99.90;;;;;;5066362;28;20034;-45
2021/11/19 07:21:56;;;;;;;28.33;20.83;;;12.40;99.90;;;;;;5065235;28;20364;-44
2021/11/19 07:24:22;;;;;;;22.65;18.17;;;12.30;99.90;;;;;;5066205;28;20041;-44
2021/11/19 07:26:48;;;;;;;26.27;18.70;;;12.30;99.90;;;;;;5056591;28;20047;-42
2021/11/19 07:29:13;;;;;;;26.15;19.65;;;12.40;99.90;;;;;;5066712;28;20490;-43
2021/11/19 07:31:39;;;;;;;28.73;21.00;;;12.40;99.90;;;;;;5066044;28;20016;-42
2021/11/19 07:34:08;;;;;;;24.25;19.77;;;12.40;99.90;;;;;;5066642;28;20135;-43
2021/11/19 07:36:34;;;;;;;23.00;17.13;;;12.40;99.90;;;;;;5065324;28;20113;-43
2021/11/19 07:38:59;;;;;;;26.50;19.98;;;12.40;99.90;;;;;;5061510;28;20055;-43
2021/11/19 07:41:26;;;;;;;22.60;17.92;;;12.40;99.90;;;;;;5049328;28;20495;-43
2021/11/19 07:43:52;;;;;;;28.10;20.10;;;12.40;99.90;;;;;;5067787;28;20029;-44
2021/11/19 07:46:23;;;;;;;26.35;19.02;;;12.40;99.90;;;;;;5050017;28;20025;-43
2021/11/19 07:48:49;;;;;;;25.58;18.05;;;12.40;99.90;;;;;;5068066;28;20502;-43
2021/11/19 07:51:19;;;;;;;24.83;18.83;;;12.50;99.90;;;;;;5054320;28;20025;-43
2021/11/19 07:53:46;;;;;;;24.98;18.35;;;12.50;99.90;;;;;;5068318;28;20095;-45
2021/11/19 07:56:14;;;;;;;26.25;18.85;;;12.50;99.90;;;;;;5070255;28;20737;-44
2021/11/19 07:58:43;;;;;;;20.88;17.42;;;12.50;99.90;;;;;;5069109;28;20035;-43
2021/11/19 08:01:10;;;;;;;25.83;17.98;;;12.50;99.90;;;;;;5034627;28;20060;-42
2021/11/19 08:03:35;;;;;;;19.02;15.23;;;12.60;99.90;;;;;;5063747;28;20158;-43
2021/11/19 08:06:04;;;;;;;23.10;16.23;;;12.60;99.90;;;;;;5069301;28;20103;-43
2021/11/19 08:08:31;;;;;;;20.92;16.65;;;12.60;99.90;;;;;;5069364;28;20016;-43
2021/11/19 08:10:58;;;;;;;22.30;17.40;;;12.70;99.90;;;;;;5054500;28;20088;-44
2021/11/19 08:13:23;;;;;;;20.45;15.43;;;12.70;99.90;;;;;;5067821;28;20387;-44
2021/11/19 08:15:49;;;;;;;15.98;13.40;;;12.70;99.90;;;;;;5069574;28;20049;-44
2021/11/19 08:18:22;;;;;;;18.80;14.98;;;12.70;99.90;;;;;;5069865;28;20039;-43
2021/11/19 08:20:54;;;;;;;15.85;13.63;;;12.70;99.90;;;;;;5059395;28;20028;-43
2021/11/19 08:23:37;;;;;;;15.38;11.82;;;12.80;99.90;;;;;;5068656;28;20019;-42
2021/11/19 08:26:11;;;;;;;14.73;11.75;;;12.80;99.90;;;;;;5068756;28;20028;-43
2021/11/19 08:28:37;;;;;;;16.58;13.32;;;12.80;99.90;;;;;;5069237;28;20032;-44
2021/11/19 08:31:08;;;;;;;14.95;12.57;;;12.80;99.90;;;;;;5053992;28;20012;-44
2021/11/19 08:33:35;;;;;;;14.32;12.07;;;12.80;99.90;;;;;;5068012;28;20032;-44
2021/11/19 08:36:01;;;;;;;21.73;15.23;;;12.80;99.90;;;;;;5069158;28;20016;-43
2021/11/19 08:38:27;;;;;;;14.27;12.13;;;12.80;99.90;;;;;;5068712;28;20032;-43
2021/11/19 08:40:55;;;;;;;18.30;14.00;;;12.80;99.90;;;;;;5056137;28;20032;-44
2021/11/19 08:43:30;;;;;;;19.40;15.45;;;12.80;99.90;;;;;;5069198;28;20027;-44
2021/11/19 08:45:57;;;;;;;17.25;14.05;;;12.80;99.90;;;;;;5065759;28;20013;-42
2021/11/19 08:48:26;;;;;;;16.73;13.50;;;12.90;99.90;;;;;;5068114;28;20025;-43
2021/11/19 08:50:52;;;;;;;21.25;14.75;;;12.90;99.90;;;;;;5057607;28;20016;-43
2021/11/19 08:53:18;;;;;;;19.10;14.32;;;12.90;99.90;;;;;;5065303;28;20037;-44
2021/11/19 08:55:49;;;;;;;15.13;12.95;;;12.90;99.90;;;;;;5067489;28;20031;-44
2021/11/19 08:58:32;;;;;;;17.55;13.27;;;12.90;99.90;;;;;;5068990;28;20444;-43
2021/11/19 09:01:00;;;;;;;15.48;12.25;;;13.00;99.90;;;;;;5052184;28;20060;-42
2021/11/19 09:03:27;;;;;;;17.63;13.98;;;13.00;99.90;;;;;;5068626;28;20085;-44
2021/11/19 09:05:52;;;;;;;15.20;12.90;;;13.00;99.90;;;;;;5067969;28;20028;-44
2021/11/19 09:08:22;;;;;;;17.10;14.07;;;13.00;99.90;;;;;;5068259;28;20043;-44
2021/11/19 09:10:51;;;;;;;16.90;14.07;;;13.00;99.90;;;;;;5057889;28;20148;-43
2021/11/19 09:13:17;;;;;;;19.38;13.98;;;13.10;99.90;;;;;;5065103;28;20371;-43
2021/11/19 09:15:46;;;;;;;16.27;13.68;;;13.10;99.90;;;;;;5067403;28;20032;-42
2021/11/19 09:18:46;;;;;;;14.13;12.20;;;13.10;99.90;;;;;;5066410;28;20129;-43
2021/11/19 09:21:14;;;;;;;17.58;14.05;;;13.10;99.90;;;;;;5052774;28;20103;-43
2021/11/19 09:23:51;;;;;;;17.13;14.40;;;13.10;99.90;;;;;;5067470;28;20518;-43
2021/11/19 09:26:42;;;;;;;17.48;13.88;;;13.20;99.90;;;;;;5067472;28;20032;-42
2021/11/19 09:29:17;;;;;;;14.55;12.25;;;13.20;99.90;;;;;;5055356;28;20032;-42
2021/11/19 09:31:46;;;;;;;15.75;12.23;;;13.20;99.90;;;;;;5052247;28;20048;-43
2021/11/19 09:34:13;;;;;;;15.98;13.40;;;13.20;99.90;;;;;;5067021;28;20113;-44
2021/11/19 09:36:39;;;;;;;13.95;11.68;;;13.30;99.90;;;;;;5066683;28;20510;-44
2021/11/19 09:39:10;;;;;;;16.17;12.23;;;13.30;99.90;;;;;;5068024;28;20055;-43
2021/11/19 09:42:10;;;;;;;16.55;12.27;;;13.40;99.90;;;;;;5052098;28;20020;-43
2021/11/19 09:44:38;;;;;;;14.18;10.77;;;13.40;99.90;;;;;;5024607;28;20133;-43
2021/11/19 09:47:24;;;;;;;16.38;12.43;;;13.50;99.90;;;;;;5061778;28;20016;-43
2021/11/19 09:50:05;;;;;;;16.85;12.95;;;13.50;99.90;;;;;;5045866;28;20025;-43
2021/11/19 09:53:10;;;;;;;14.57;11.90;;;13.50;99.90;;;;;;5054966;28;20028;-43
2021/11/19 09:55:58;;;;;;;19.67;12.80;;;13.50;99.90;;;;;;5054096;28;20033;-43
2021/11/19 09:58:40;;;;;;;12.93;11.05;;;13.60;99.90;;;;;;5066997;28;20576;-43
2021/11/19 10:01:40;;;;;;;15.43;11.63;;;13.60;99.90;;;;;;5051655;28;20722;-42
2021/11/19 10:04:32;;;;;;;15.63;12.00;;;13.60;99.90;;;;;;5041195;28;20036;-42
2021/11/19 10:07:31;;;;;;;11.88;9.75;;;13.70;99.90;;;;;;5066732;28;20028;-43
2021/11/19 10:10:05;;;;;;;14.05;10.45;;;13.70;99.90;;;;;;5061135;28;20036;-43
2021/11/19 10:12:55;;;;;;;14.52;11.52;;;13.70;99.90;;;;;;5057317;28;20017;-43
2021/11/19 10:15:32;;;;;;;14.32;11.25;;;13.80;99.90;;;;;;5066871;28;20032;-43
2021/11/19 10:18:22;;;;;;;13.02;9.65;;;13.80;99.90;;;;;;5066956;28;20032;-43
2021/11/19 10:20:59;;;;;;;13.20;10.10;;;13.80;99.90;;;;;;5055080;28;20170;-43
2021/11/19 10:23:47;;;;;;;14.88;10.93;;;13.90;99.90;;;;;;5062011;28;20082;-42
2021/11/19 10:26:30;;;;;;;12.35;8.88;;;13.90;99.90;;;;;;5046597;28;20034;-42
2021/11/19 10:29:04;;;;;;;14.77;10.13;;;13.90;99.90;;;;;;5064970;28;20520;-44
2021/11/19 10:31:30;;;;;;;14.30;8.48;;;14.00;99.90;;;;;;5051419;28;20119;-43
2021/11/19 10:33:58;;;;;;;9.27;7.93;;;14.00;99.90;;;;;;5065881;28;20548;-42
2021/11/19 10:36:32;;;;;;;11.38;8.52;;;14.10;99.90;;;;;;5067373;28;20024;-42
2021/11/19 10:39:35;;;;;;;11.38;8.45;;;14.10;99.90;;;;;;5066175;28;20490;-43
2021/11/19 10:42:25;;;;;;;11.67;8.80;;;14.10;99.90;;;;;;5032056;28;20094;-43
2021/11/19 10:45:15;;;;;;;11.52;8.38;;;14.20;99.90;;;;;;5066405;28;20032;-44
2021/11/19 10:48:10;;;;;;;11.55;7.75;;;14.20;99.90;;;;;;5065457;28;20491;-44
2021/11/19 10:51:11;;;;;;;12.60;8.20;;;14.20;99.90;;;;;;5046570;28;20078;-44
2021/11/19 10:53:57;;;;;;;11.05;9.20;;;14.10;99.90;;;;;;5065932;28;20602;-44
2021/11/19 10:56:50;;;;;;;9.35;7.25;;;14.10;99.90;;;;;;5066363;28;20032;-44
2021/11/19 10:59:38;;;;;;;12.98;8.25;;;14.10;99.90;;;;;;5066264;28;20044;-42
2021/11/19 11:02:12;;;;;;;16.52;9.38;;;14.20;99.90;;;;;;5051041;28;20029;-44
2021/11/19 11:04:57;;;;;;;10.73;7.97;;;14.20;99.90;;;;;;5066496;28;20036;-43
2021/11/19 11:07:27;;;;;;;7.78;6.43;;;14.20;99.90;;;;;;5046342;28;20029;-43
2021/11/19 11:10:15;;;;;;;10.23;6.95;;;14.20;99.90;;;;;;5055875;28;20028;-44
2021/11/19 11:12:43;;;;;;;10.93;7.60;;;14.30;99.90;;;;;;5057908;28;20012;-43
2021/11/19 11:15:29;;;;;;;7.85;6.32;;;14.30;99.90;;;;;;5066188;28;20040;-43
2021/11/19 11:18:10;;;;;;;10.13;7.20;;;14.30;99.90;;;;;;5050466;28;20057;-43
2021/11/19 11:20:53;;;;;;;9.52;7.00;;;14.30;99.90;;;;;;5057020;28;20571;-43
2021/11/19 11:23:22;;;;;;;11.77;7.57;;;14.30;99.90;;;;;;5070389;28;20056;-43
2021/11/19 11:25:59;;;;;;;9.48;6.30;;;14.30;99.90;;;;;;5064143;28;20032;-43
2021/11/19 11:28:39;;;;;;;8.95;6.15;;;14.20;99.90;;;;;;5070328;28;20107;-43
2021/11/19 11:31:34;;;;;;;8.65;6.70;;;14.30;99.90;;;;;;5053443;28;20067;-43
2021/11/19 11:34:13;;;;;;;10.75;6.70;;;14.20;99.90;;;;;;5060492;28;20052;-43
2021/11/19 11:36:45;;;;;;;9.77;7.30;;;14.20;99.90;;;;;;5066353;28;20032;-43
2021/11/19 11:39:32;;;;;;;11.73;8.10;;;14.20;99.90;;;;;;5069451;28;20025;-44
2021/11/19 11:42:21;;;;;;;9.52;7.32;;;14.20;99.90;;;;;;5052907;28;20017;-44
2021/11/19 11:44:50;;;;;;;7.30;6.60;;;14.20;99.90;;;;;;5070246;28;20024;-43
2021/11/19 11:47:47;;;;;;;8.90;7.28;;;14.20;99.90;;;;;;5069739;28;20033;-43
2021/11/19 11:50:37;;;;;;;9.75;7.72;;;14.30;99.90;;;;;;5062977;28;20121;-44
2021/11/19 11:53:19;;;;;;;9.57;8.00;;;14.30;99.90;;;;;;5065832;28;20060;-44
2021/11/19 11:56:03;;;;;;;10.55;8.05;;;14.40;99.90;;;;;;5066218;28;20516;-43
2021/11/19 11:58:49;;;;;;;12.00;7.85;;;14.40;99.90;;;;;;5069195;28;20020;-43
2021/11/19 12:01:43;;;;;;;8.75;7.35;;;14.50;99.90;;;;;;5067937;28;20021;-43
2021/11/19 12:04:17;;;;;;;9.55;7.78;;;14.50;99.90;;;;;;5069825;28;20028;-44
2021/11/19 12:06:51;;;;;;;10.43;7.70;;;14.60;99.90;;;;;;5069661;28;20509;-44
2021/11/19 12:09:53;;;;;;;9.68;6.50;;;14.60;99.90;;;;;;5069871;28;20472;-43
2021/11/19 12:12:19;;;;;;;9.18;6.50;;;14.60;99.90;;;;;;5056496;28;20431;-43
2021/11/19 12:15:05;;;;;;;11.82;6.82;;;14.50;99.90;;;;;;5069790;28;20036;-44
2021/11/19 12:17:43;;;;;;;7.50;6.70;;;14.50;99.90;;;;;;5068581;28;20051;-43
2021/11/19 12:20:16;;;;;;;6.95;6.00;;;14.40;99.90;;;;;;5068963;28;20500;-43
2021/11/19 12:22:54;;;;;;;6.45;5.85;;;14.40;99.90;;;;;;5068770;28;20875;-44
2021/11/19 12:25:38;;;;;;;8.27;6.45;;;14.40;99.90;;;;;;5069487;28;20025;-42
2021/11/19 12:28:17;;;;;;;7.65;6.35;;;14.30;99.90;;;;;;5069180;28;20023;-44
2021/11/19 12:31:01;;;;;;;11.23;6.57;;;14.30;99.90;;;;;;5069268;28;20032;-43
2021/11/19 12:33:38;;;;;;;8.43;5.97;;;14.30;99.90;;;;;;5068878;28;20042;-42
2021/11/19 12:36:16;;;;;;;7.95;6.03;;;14.20;99.90;;;;;;5069355;28;20031;-43
2021/11/19 12:38:47;;;;;;;7.68;6.00;;;14.20;99.90;;;;;;5065965;28;20024;-43
2021/11/19 12:41:47;;;;;;;9.38;6.10;;;14.20;99.90;;;;;;5068591;28;20108;-43
2021/11/19 12:44:24;;;;;;;8.18;5.25;;;14.20;99.90;;;;;;5067825;28;20032;-43
2021/11/19 12:47:33;;;;;;;6.15;5.47;;;14.20;99.90;;;;;;5068775;28;20071;-44
2021/11/19 12:50:18;;;;;;;7.60;6.38;;;14.20;99.90;;;;;;5057473;28;20110;-43
2021/11/19 12:53:09;;;;;;;6.43;4.70;;;14.30;99.90;;;;;;5068657;28;20025;-43
2021/11/19 12:55:41;;;;;;;10.82;5.50;;;14.20;99.90;;;;;;5065287;28;20404;-43
2021/11/19 12:58:19;;;;;;;6.70;4.90;;;14.20;99.90;;;;;;5068533;28;20482;-43